Time;durP1;ratioP1;P1;durP2;ratioP2;P2;SDS_P1;SDS_P2;PMS_P1;PMS_P2;Temp;Humidity;BMP_temperature;BMP_pressure;BME280_temperature;BME280_humidity;BME280_pressure;Samples;Min_cycle;Max_cycle;Signal;HPM_P1;HPM_P2
2020/12/31 00:00:13;;;;;;;9.38;2.72;;;;;;;17.81;71.47;101539.81;5051192;28;20029;-74
2020/12/31 00:02:38;;;;;;;3.72;2.70;;;;;;;17.81;71.28;101543.38;5050609;28;20037;-73
2020/12/31 00:05:03;;;;;;;9.32;2.78;;;;;;;17.80;71.95;101538.94;5051291;28;20400;-74
2020/12/31 00:07:29;;;;;;;12.30;2.90;;;;;;;17.86;71.36;101532.69;5049935;28;20091;-73
2020/12/31 00:09:54;;;;;;;21.75;2.88;;;;;;;17.89;71.21;101528.25;5051240;28;20044;-74
2020/12/31 00:12:19;;;;;;;38.35;3.40;;;;;;;17.86;71.46;101524.66;5050900;28;20037;-73
2020/12/31 00:14:45;;;;;;;14.27;2.75;;;;;;;17.84;71.37;101529.16;5050840;28;20516;-73
2020/12/31 00:17:10;;;;;;;14.38;2.83;;;;;;;17.80;71.96;101530.91;5052058;28;20037;-73
2020/12/31 00:19:36;;;;;;;18.88;2.88;;;;;;;17.82;71.71;101526.47;5049537;28;20095;-74
2020/12/31 00:22:01;;;;;;;3.80;2.47;;;;;;;17.81;71.45;101531.81;5050691;28;20045;-73
2020/12/31 00:24:26;;;;;;;8.93;2.90;;;;;;;17.82;71.74;101523.78;5050087;28;20094;-74
2020/12/31 00:26:52;;;;;;;17.95;2.58;;;;;;;17.81;71.54;101522.00;5050057;28;20128;-74
2020/12/31 00:29:17;;;;;;;6.57;2.38;;;;;;;17.81;71.73;101521.13;5051411;28;20049;-74
2020/12/31 00:31:42;;;;;;;5.45;2.35;;;;;;;17.82;71.24;101522.91;5049240;28;20041;-74
2020/12/31 00:34:08;;;;;;;5.80;1.75;;;;;;;17.79;71.17;101525.56;5051083;28;20033;-75
2020/12/31 00:36:33;;;;;;;13.30;2.53;;;;;;;17.86;71.67;101513.97;5051636;28;20056;-78
2020/12/31 00:38:59;;;;;;;3.60;2.63;;;;;;;17.89;72.03;101508.66;5050316;28;20052;-77
2020/12/31 00:41:24;;;;;;;5.93;2.70;;;;;;;17.88;71.35;101509.53;5050295;28;20041;-76
2020/12/31 00:43:49;;;;;;;7.93;2.40;;;;;;;17.87;71.58;101502.41;5050718;28;20091;-76
2020/12/31 00:46:14;;;;;;;5.25;2.58;;;;;;;17.85;71.38;101498.88;5050102;28;20393;-76
2020/12/31 00:48:40;;;;;;;2.97;2.03;;;;;;;17.83;71.85;101497.97;5049668;28;20404;-75
2020/12/31 00:51:05;;;;;;;5.03;2.00;;;;;;;17.82;71.33;101497.09;5050798;28;20572;-75
2020/12/31 00:53:30;;;;;;;6.50;2.13;;;;;;;17.87;71.12;101499.72;5051087;28;20041;-75
2020/12/31 00:55:56;;;;;;;3.28;2.15;;;;;;;17.86;71.14;101495.28;5049997;28;20041;-76
2020/12/31 00:58:21;;;;;;;34.58;2.88;;;;;;;18.02;70.62;101491.69;5049724;28;20033;-76
2020/12/31 01:00:46;;;;;;;17.77;2.83;;;;;;;17.99;71.11;101489.00;5049655;28;20041;-76
2020/12/31 01:03:12;;;;;;;13.50;2.88;;;;;;;17.91;70.85;101490.84;5049943;28;20036;-75
2020/12/31 01:05:37;;;;;;;15.23;2.53;;;;;;;17.88;70.59;101488.16;5049261;28;20072;-74
2020/12/31 01:08:02;;;;;;;30.33;3.38;;;;;;;18.02;70.19;101483.66;5049341;28;20060;-76
2020/12/31 01:10:28;;;;;;;15.30;2.67;;;;;;;17.94;70.88;101477.44;5050995;28;20047;-76
2020/12/31 01:12:53;;;;;;;35.75;2.40;;;;;;;17.93;71.08;101484.56;5048866;28;20033;-76
2020/12/31 01:15:18;;;;;;;27.33;2.70;;;;;;;17.99;70.40;101481.00;5050078;28;20120;-77
2020/12/31 01:17:44;;;;;;;7.38;1.92;;;;;;;17.95;70.45;101491.72;5050687;28;20072;-75
2020/12/31 01:20:09;;;;;;;12.73;2.50;;;;;;;17.89;70.83;101489.94;5050977;28;20079;-76
2020/12/31 01:22:34;;;;;;;8.50;1.80;;;;;;;17.87;70.54;101481.94;5041634;28;20073;-76
2020/12/31 01:25:00;;;;;;;4.15;2.03;;;;;;;17.88;70.60;101477.47;5029203;28;20064;-75
2020/12/31 01:27:25;;;;;;;7.65;1.75;;;;;;;17.89;70.37;101481.94;5029858;28;20444;-74
2020/12/31 01:29:50;;;;;;;10.30;2.13;;;;;;;17.85;70.70;101474.81;5029262;28;20041;-74
2020/12/31 01:32:16;;;;;;;8.38;2.10;;;;;;;17.85;71.07;101475.69;5029674;28;20053;-73
2020/12/31 01:34:41;;;;;;;13.25;2.75;;;;;;;17.85;70.71;101477.50;5030163;28;20037;-74
2020/12/31 01:37:06;;;;;;;11.02;1.95;;;;;;;17.85;70.63;101478.38;5029213;28;20029;-73
2020/12/31 01:39:32;;;;;;;17.45;2.03;;;;;;;17.85;70.77;101478.38;5029445;28;20073;-75
2020/12/31 01:41:57;;;;;;;6.88;1.90;;;;;;;17.85;71.09;101477.50;5031667;28;20088;-74
2020/12/31 01:44:22;;;;;;;3.47;1.40;;;;;;;17.93;70.87;101481.91;5049084;28;20032;-73
2020/12/31 01:46:48;;;;;;;7.30;2.15;;;;;;;17.89;70.31;101476.59;5049735;28;20041;-73
2020/12/31 01:49:13;;;;;;;6.00;2.00;;;;;;;17.91;70.95;101467.69;5049154;28;20029;-73
2020/12/31 01:51:38;;;;;;;6.07;1.50;;;;;;;17.91;70.59;101472.13;5050355;28;20730;-73
2020/12/31 01:54:04;;;;;;;4.63;1.75;;;;;;;17.89;70.44;101466.78;5049853;28;20056;-73
2020/12/31 01:56:29;;;;;;;5.20;1.42;;;;;;;17.87;70.71;101457.88;5048632;28;20045;-74
2020/12/31 01:58:54;;;;;;;5.00;1.55;;;;;;;17.89;70.33;101448.09;5049960;28;20071;-73
2020/12/31 02:01:20;;;;;;;5.03;1.58;;;;;;;17.86;70.51;101448.09;5049292;28;20040;-74
2020/12/31 02:03:45;;;;;;;2.70;1.42;;;;;;;17.85;70.13;101448.13;5047983;28;20608;-75
2020/12/31 02:06:10;;;;;;;4.32;1.60;;;;;;;17.84;70.54;101439.22;5050183;28;20379;-74
2020/12/31 02:08:36;;;;;;;4.88;1.40;;;;;;;17.84;70.71;101443.66;5050420;28;20080;-74
2020/12/31 02:11:01;;;;;;;9.40;1.40;;;;;;;17.83;70.36;101434.75;5049542;28;20041;-74
2020/12/31 02:13:26;;;;;;;4.30;1.50;;;;;;;17.83;70.15;101442.78;5049671;28;20107;-73
2020/12/31 02:15:52;;;;;;;3.22;1.10;;;;;;;17.84;69.92;101443.66;5049152;28;20041;-74
2020/12/31 02:18:17;;;;;;;2.50;1.30;;;;;;;17.84;70.28;101443.66;5050251;28;20051;-74
2020/12/31 02:20:42;;;;;;;3.30;1.70;;;;;;;17.84;70.24;101441.00;5047671;28;20041;-74
2020/12/31 02:23:08;;;;;;;2.08;1.52;;;;;;;17.83;70.17;101437.44;5050581;28;20116;-74
2020/12/31 02:25:33;;;;;;;2.15;1.30;;;;;;;17.82;69.77;101443.66;5053591;28;20106;-74
2020/12/31 02:27:58;;;;;;;2.33;1.35;;;;;;;17.83;70.22;101437.44;5053717;28;22233;-74
2020/12/31 02:30:24;;;;;;;2.05;1.50;;;;;;;17.81;69.80;101436.53;5053743;28;20064;-74
2020/12/31 02:32:49;;;;;;;2.80;1.35;;;;;;;17.80;70.32;101429.41;5052821;28;20041;-74
2020/12/31 02:35:14;;;;;;;3.80;1.25;;;;;;;17.82;70.19;101427.63;5053706;28;20041;-74
2020/12/31 02:37:40;;;;;;;2.40;1.55;;;;;;;17.85;69.69;101432.09;5053608;28;20041;-74
2020/12/31 02:40:05;;;;;;;2.60;1.20;;;;;;;17.85;69.60;101429.41;5052102;28;20520;-74
2020/12/31 02:42:30;;;;;;;3.72;1.10;;;;;;;17.86;69.50;101425.81;5053843;28;20559;-73
2020/12/31 02:44:56;;;;;;;2.85;1.00;;;;;;;17.85;69.57;101426.75;5051521;28;20041;-73
2020/12/31 02:47:21;;;;;;;1.60;1.10;;;;;;;17.84;69.85;101424.97;5051923;28;20036;-73
2020/12/31 02:49:46;;;;;;;2.50;1.05;;;;;;;17.82;69.97;101427.63;5053239;28;20097;-73
2020/12/31 02:52:12;;;;;;;3.45;0.80;;;;;;;17.82;69.80;101430.31;5052156;28;20037;-73
2020/12/31 02:54:37;;;;;;;8.40;0.82;;;;;;;17.83;69.97;101437.44;5052017;28;20059;-74
2020/12/31 02:57:02;;;;;;;2.20;1.15;;;;;;;17.83;69.51;101437.44;5051526;28;20049;-74
2020/12/31 02:59:28;;;;;;;1.70;1.00;;;;;;;17.81;69.41;101439.22;5051732;28;20041;-74
2020/12/31 03:01:53;;;;;;;1.50;1.05;;;;;;;17.81;69.32;101441.88;5052225;28;20446;-74
2020/12/31 03:04:19;;;;;;;3.63;1.13;;;;;;;17.80;69.38;101436.53;5051413;28;20604;-74
2020/12/31 03:06:44;;;;;;;6.43;1.17;;;;;;;17.79;69.48;101432.97;5051476;28;20060;-74
2020/12/31 03:09:09;;;;;;;5.45;0.90;;;;;;;17.79;69.52;101432.09;5052535;28;20048;-74
2020/12/31 03:11:35;;;;;;;4.78;1.10;;;;;;;17.78;69.65;101430.34;5052883;28;20041;-74
2020/12/31 03:14:00;;;;;;;3.70;1.00;;;;;;;17.78;68.93;101425.00;5050807;28;20040;-74
2020/12/31 03:16:25;;;;;;;1.25;0.90;;;;;;;17.79;69.29;101424.97;5051534;28;20434;-74
2020/12/31 03:18:51;;;;;;;3.13;1.17;;;;;;;17.81;69.10;101416.94;5051413;28;20036;-77
2020/12/31 03:21:16;;;;;;;2.05;1.13;;;;;;;17.78;69.13;101416.97;5053050;28;20065;-74
2020/12/31 03:23:41;;;;;;;1.33;0.82;;;;;;;17.77;69.62;101412.53;5050990;28;20047;-75
2020/12/31 03:26:07;;;;;;;1.17;0.85;;;;;;;17.73;69.61;101411.63;5051667;28;20044;-75
2020/12/31 03:28:32;;;;;;;1.65;0.90;;;;;;;17.74;69.06;101408.06;5053098;28;20045;-75
2020/12/31 03:30:57;;;;;;;4.13;0.93;;;;;;;17.73;69.48;101410.72;5050815;28;20056;-74
2020/12/31 03:33:23;;;;;;;0.95;0.80;;;;;;;17.76;69.04;101403.63;5052159;28;20063;-75
2020/12/31 03:35:48;;;;;;;1.38;0.80;;;;;;;17.75;68.91;101399.16;5051432;28;20174;-75
2020/12/31 03:38:13;;;;;;;2.17;0.80;;;;;;;17.76;69.04;101403.63;5051406;28;20057;-75
2020/12/31 03:40:39;;;;;;;1.23;0.80;;;;;;;17.76;69.13;101389.38;5052428;28;20386;-75
2020/12/31 03:43:04;;;;;;;1.80;0.98;;;;;;;17.77;69.22;101385.81;5050941;28;20437;-75
2020/12/31 03:45:29;;;;;;;1.45;0.98;;;;;;;17.75;69.04;101388.47;5052604;28;20402;-76
2020/12/31 03:47:55;;;;;;;7.70;0.93;;;;;;;17.82;68.51;101384.91;5050506;28;20507;-75
2020/12/31 03:50:21;;;;;;;4.10;0.80;;;;;;;17.79;68.75;101384.00;5050638;28;20115;-75
2020/12/31 03:52:47;;;;;;;1.60;0.80;;;;;;;17.75;68.74;101387.59;5051811;28;20041;-74
2020/12/31 03:55:12;;;;;;;4.30;0.70;;;;;;;17.78;68.79;101379.59;5052610;28;20028;-75
2020/12/31 03:57:37;;;;;;;1.00;0.70;;;;;;;17.75;68.95;101384.91;5052471;28;20132;-76
2020/12/31 04:00:02;;;;;;;6.63;0.75;;;;;;;17.75;68.67;101380.47;5051509;28;20079;-75
2020/12/31 04:02:28;;;;;;;0.90;0.75;;;;;;;17.77;68.49;101399.16;5051064;28;20033;-75
2020/12/31 04:04:53;;;;;;;2.38;0.80;;;;;;;17.73;68.61;101394.72;5051122;28;20510;-76
2020/12/31 04:07:18;;;;;;;1.00;0.70;;;;;;;17.72;69.04;101391.16;5050697;28;20497;-75
2020/12/31 04:09:44;;;;;;;2.22;0.70;;;;;;;17.75;68.96;101390.25;5050110;28;20437;-75
2020/12/31 04:12:09;;;;;;;1.85;0.93;;;;;;;17.73;69.00;101394.72;5052075;28;20496;-75
2020/12/31 04:14:34;;;;;;;4.55;0.80;;;;;;;17.73;68.88;101398.28;5051000;28;20071;-75
2020/12/31 04:17:00;;;;;;;1.27;0.70;;;;;;;17.71;68.23;101394.75;5050285;28;20087;-75
2020/12/31 04:19:25;;;;;;;1.42;0.75;;;;;;;17.75;68.72;101398.28;5051244;28;20108;-75
2020/12/31 04:21:50;;;;;;;1.30;0.80;;;;;;;17.70;68.61;101389.41;5051348;28;20437;-75
2020/12/31 04:24:16;;;;;;;1.20;0.60;;;;;;;17.70;68.29;101389.41;5050654;28;20040;-76
2020/12/31 04:26:41;;;;;;;1.67;0.57;;;;;;;17.70;68.71;101392.97;5051678;28;20123;-75
2020/12/31 04:29:06;;;;;;;1.02;0.70;;;;;;;17.76;68.51;101395.59;5049802;28;20429;-74
2020/12/31 04:31:32;;;;;;;1.70;0.75;;;;;;;17.78;68.22;101395.59;5051454;28;20633;-74
2020/12/31 04:33:57;;;;;;;5.10;0.80;;;;;;;17.72;68.74;101388.47;5049867;28;20405;-74
2020/12/31 04:36:22;;;;;;;1.20;0.60;;;;;;;17.71;68.42;101393.84;5051036;28;20041;-74
2020/12/31 04:38:48;;;;;;;0.80;0.52;;;;;;;17.72;68.21;101396.50;5048040;28;20089;-74
2020/12/31 04:41:13;;;;;;;2.05;0.80;;;;;;;17.73;68.04;101381.34;5049793;28;20040;-74
2020/12/31 04:43:38;;;;;;;0.60;0.60;;;;;;;17.72;68.45;101390.28;5051416;28;20036;-74
2020/12/31 04:46:04;;;;;;;0.80;0.55;;;;;;;17.71;68.11;101399.19;5049315;28;20785;-74
2020/12/31 04:48:29;;;;;;;1.15;0.50;;;;;;;17.70;68.46;101397.41;5051109;28;20045;-74
2020/12/31 04:50:54;;;;;;;4.43;0.60;;;;;;;17.72;68.74;101387.63;5050339;28;20091;-74
2020/12/31 04:53:20;;;;;;;1.05;0.60;;;;;;;17.71;68.59;101386.72;5049654;28;20091;-74
2020/12/31 04:55:45;;;;;;;1.42;0.60;;;;;;;17.70;68.30;101392.97;5048620;28;20073;-74
2020/12/31 04:58:10;;;;;;;4.82;0.68;;;;;;;17.70;68.10;101392.06;5050775;28;20521;-72
2020/12/31 05:00:36;;;;;;;1.08;0.55;;;;;;;17.71;68.49;101385.84;5049799;28;20481;-75
2020/12/31 05:03:01;;;;;;;1.35;0.57;;;;;;;17.73;67.86;101394.72;5049303;28;20485;-74
2020/12/31 05:05:26;;;;;;;3.50;0.52;;;;;;;17.69;68.46;101391.19;5049788;28;20036;-74
2020/12/31 05:07:52;;;;;;;0.40;0.40;;;;;;;17.68;68.18;101392.06;5049545;28;20040;-74
2020/12/31 05:10:17;;;;;;;0.75;0.60;;;;;;;17.70;68.19;101392.97;5050330;28;20402;-74
2020/12/31 05:12:42;;;;;;;0.98;0.50;;;;;;;17.70;67.76;101395.63;5050595;28;20048;-74
2020/12/31 05:15:08;;;;;;;0.95;0.70;;;;;;;17.73;68.30;101400.06;5050630;28;20517;-74
2020/12/31 05:17:33;;;;;;;0.80;0.50;;;;;;;17.69;68.21;101393.84;5050824;28;20052;-74
2020/12/31 05:19:58;;;;;;;0.98;0.55;;;;;;;17.71;68.43;101401.88;5049925;28;20057;-73
2020/12/31 05:22:24;;;;;;;1.13;0.50;;;;;;;17.70;67.61;101410.75;5050936;28;20068;-73
2020/12/31 05:24:49;;;;;;;1.95;0.55;;;;;;;17.69;68.07;101396.53;5049847;28;20116;-73
2020/12/31 05:27:14;;;;;;;1.23;0.60;;;;;;;17.70;67.58;101389.41;5049552;28;20033;-73
2020/12/31 05:29:40;;;;;;;1.70;0.77;;;;;;;17.74;67.75;101383.13;5050113;28;20033;-73
2020/12/31 05:32:05;;;;;;;1.40;0.70;;;;;;;17.72;67.70;101382.28;5049692;28;20037;-73
2020/12/31 05:34:30;;;;;;;0.80;0.60;;;;;;;17.72;67.97;101390.28;5050044;28;20183;-73
2020/12/31 05:36:56;;;;;;;0.50;0.40;;;;;;;17.70;67.75;101398.31;5048944;28;20132;-73
2020/12/31 05:39:21;;;;;;;0.75;0.50;;;;;;;17.72;67.48;101406.31;5048686;28;20120;-73
2020/12/31 05:41:46;;;;;;;1.05;0.40;;;;;;;17.70;67.45;101405.41;5048378;28;20622;-73
2020/12/31 05:44:12;;;;;;;1.10;0.40;;;;;;;17.69;68.08;101406.31;5048897;28;20048;-73
2020/12/31 05:46:37;;;;;;;0.65;0.50;;;;;;;17.71;67.42;101408.09;5041898;28;20421;-73
2020/12/31 05:49:02;;;;;;;3.95;0.40;;;;;;;17.69;67.42;101406.31;5049775;28;20392;-74
2020/12/31 05:51:28;;;;;;;10.25;0.55;;;;;;;17.69;67.93;101414.31;5049103;28;20036;-73
2020/12/31 05:53:53;;;;;;;19.35;0.80;;;;;;;17.69;67.25;101411.66;5048295;28;20048;-73
2020/12/31 05:56:18;;;;;;;5.68;0.50;;;;;;;17.69;67.66;101419.66;5049768;28;20545;-73
2020/12/31 05:58:44;;;;;;;5.20;0.50;;;;;;;17.71;67.37;101424.13;5052625;28;20045;-75
2020/12/31 06:01:10;;;;;;;22.65;0.90;;;;;;;17.81;67.10;101422.28;5052402;28;20064;-77
2020/12/31 06:03:36;;;;;;;12.50;0.93;;;;;;;17.85;67.08;101424.94;5055256;28;20434;-78
2020/12/31 06:06:01;;;;;;;14.18;0.70;;;;;;;17.79;67.56;101421.41;5055054;28;20041;-79
2020/12/31 06:08:26;;;;;;;2.05;0.55;;;;;;;17.75;67.47;101422.31;5054189;28;20040;-78
2020/12/31 06:10:52;;;;;;;9.75;1.17;;;;;;;17.79;67.70;101432.09;5052986;28;20087;-76
2020/12/31 06:13:17;;;;;;;3.90;0.50;;;;;;;17.77;67.12;101437.44;5054072;28;20513;-78
2020/12/31 06:15:43;;;;;;;5.57;0.98;;;;;;;17.72;67.29;101428.53;5054184;28;20398;-79
2020/12/31 06:18:08;;;;;;;4.90;0.57;;;;;;;17.70;67.47;101426.78;5054858;28;20440;-77
2020/12/31 06:20:34;;;;;;;32.70;0.90;;;;;;;17.77;67.90;101423.22;5054530;28;20044;-77
2020/12/31 06:22:59;;;;;;;12.60;0.63;;;;;;;17.79;68.22;101424.06;5052336;28;22375;-74
2020/12/31 06:25:24;;;;;;;9.45;1.00;;;;;;;17.92;67.39;101417.78;5053901;28;20445;-75
2020/12/31 06:27:50;;;;;;;13.40;0.85;;;;;;;17.89;67.74;101429.38;5052094;28;20041;-77
2020/12/31 06:30:15;;;;;;;27.80;1.00;;;;;;;17.89;67.42;101425.81;5051560;28;20117;-76
2020/12/31 06:32:40;;;;;;;20.55;0.80;;;;;;;17.92;67.37;101424.03;5051975;28;20069;-76
2020/12/31 06:35:06;;;;;;;8.70;0.95;;;;;;;17.92;67.95;101420.47;5051895;28;20044;-75
2020/12/31 06:37:31;;;;;;;9.18;0.73;;;;;;;17.92;68.34;101428.47;5051903;28;20087;-75
2020/12/31 06:39:56;;;;;;;7.90;0.60;;;;;;;17.95;67.41;101431.16;5037259;28;20056;-76
2020/12/31 06:42:22;;;;;;;27.23;1.23;;;;;;;17.96;67.45;101432.03;5036256;28;20083;-76
2020/12/31 06:44:47;;;;;;;11.70;1.42;;;;;;;17.97;67.96;101436.50;5051795;28;20029;-76
2020/12/31 06:47:12;;;;;;;4.40;0.80;;;;;;;17.94;67.68;101442.72;5047065;28;20091;-76
2020/12/31 06:49:38;;;;;;;8.32;0.80;;;;;;;17.93;67.97;101435.59;5034646;28;20034;-76
2020/12/31 06:52:03;;;;;;;10.90;0.80;;;;;;;17.92;67.32;101436.50;5044769;28;20049;-76
2020/12/31 06:54:28;;;;;;;28.80;1.08;;;;;;;17.93;67.80;101427.59;5033176;28;20034;-75
2020/12/31 06:56:54;;;;;;;2.15;0.55;;;;;;;17.90;67.55;101419.59;5053084;28;20044;-76
2020/12/31 06:59:19;;;;;;;3.97;0.63;;;;;;;17.87;67.66;101417.81;5050211;28;20045;-76
2020/12/31 07:01:44;;;;;;;5.53;0.68;;;;;;;17.96;67.29;101411.56;5053406;28;20050;-76
2020/12/31 07:04:10;;;;;;;3.28;0.80;;;;;;;17.91;67.09;101414.25;5050556;28;20053;-76
2020/12/31 07:06:35;;;;;;;10.70;0.70;;;;;;;17.88;67.42;101416.03;5043965;28;20041;-77
2020/12/31 07:09:00;;;;;;;3.17;0.70;;;;;;;17.94;67.59;101408.00;5049792;28;20394;-76
2020/12/31 07:11:26;;;;;;;3.80;0.60;;;;;;;17.89;67.45;101404.47;5048811;28;20094;-77
2020/12/31 07:13:51;;;;;;;8.18;0.73;;;;;;;17.92;67.59;101408.00;5051629;28;20124;-76
2020/12/31 07:16:17;;;;;;;2.13;0.70;;;;;;;17.92;67.77;101399.97;5051725;28;20099;-76
2020/12/31 07:18:42;;;;;;;4.03;0.50;;;;;;;17.87;67.20;101395.56;5032675;28;20045;-77
2020/12/31 07:21:08;;;;;;;4.85;0.70;;;;;;;17.95;67.28;101403.53;5049019;28;20034;-81
2020/12/31 07:23:33;;;;;;;3.03;0.50;;;;;;;17.87;67.81;101408.91;5052778;28;20041;-79
2020/12/31 07:25:59;;;;;;;17.58;0.90;;;;;;;17.93;67.62;101411.56;5050454;28;20044;-79
2020/12/31 07:28:24;;;;;;;18.55;0.77;;;;;;;18.01;68.08;101409.75;5032512;28;20124;-79
2020/12/31 07:30:50;;;;;;;21.85;0.90;;;;;;;18.00;68.05;101415.09;5047297;28;20497;-78
2020/12/31 07:33:16;;;;;;;17.13;1.25;;;;;;;17.95;68.30;101417.78;5036455;28;20085;-77
2020/12/31 07:35:41;;;;;;;15.25;1.23;;;;;;;17.96;68.25;101411.56;5012895;28;20026;-74
2020/12/31 07:38:07;;;;;;;31.65;1.48;;;;;;;18.20;67.80;101413.22;5027226;28;20459;-74
2020/12/31 07:40:33;;;;;;;36.63;1.70;;;;;;;18.09;67.54;101415.94;5019468;28;20042;-74
2020/12/31 07:42:58;;;;;;;26.25;1.20;;;;;;;17.98;67.85;101424.91;5028381;28;20048;-73
2020/12/31 07:45:23;;;;;;;35.65;1.45;;;;;;;18.07;69.55;101428.41;5012526;28;20070;-73
2020/12/31 07:47:49;;;;;;;49.42;1.80;;;;;;;18.23;69.32;101422.13;5026482;28;20140;-74
2020/12/31 07:50:14;;;;;;;38.20;1.65;;;;;;;18.01;69.11;101424.88;5012298;28;20050;-76
2020/12/31 07:52:40;;;;;;;50.38;2.13;;;;;;;17.75;70.16;101428.53;5013332;28;20046;-74
2020/12/31 07:55:05;;;;;;;30.92;1.90;;;;;;;17.68;70.07;101439.25;5011817;28;20487;-75
2020/12/31 07:57:31;;;;;;;14.43;1.45;;;;;;;17.68;69.86;101436.56;5029801;28;20065;-75
2020/12/31 07:59:56;;;;;;;15.30;1.58;;;;;;;17.69;68.96;101436.56;5030781;28;20480;-74
2020/12/31 08:02:22;;;;;;;14.13;2.20;;;;;;;17.69;69.50;101443.69;5016172;28;20180;-74
2020/12/31 08:04:47;;;;;;;22.20;1.50;;;;;;;17.66;69.38;101447.25;5028461;28;20037;-75
2020/12/31 08:07:13;;;;;;;12.98;2.05;;;;;;;17.68;68.66;101442.81;5016598;28;20533;-74
2020/12/31 08:09:38;;;;;;;8.50;1.30;;;;;;;17.65;68.97;101445.50;5021780;28;20044;-74
2020/12/31 08:12:04;;;;;;;16.40;1.65;;;;;;;17.64;69.00;101434.81;5029317;28;20033;-74
2020/12/31 08:14:29;;;;;;;10.65;1.17;;;;;;;17.64;68.50;101443.72;5029957;28;20046;-74
2020/12/31 08:16:55;;;;;;;12.73;1.40;;;;;;;17.62;68.50;101436.59;5027085;28;20410;-74
2020/12/31 08:19:20;;;;;;;8.45;1.10;;;;;;;17.62;69.07;101436.59;5020084;28;20037;-73
2020/12/31 08:21:45;;;;;;;15.82;1.17;;;;;;;17.63;69.00;101446.38;5011932;28;20034;-74
2020/12/31 08:24:11;;;;;;;15.73;1.30;;;;;;;17.60;69.08;101441.91;5040042;28;20040;-73
2020/12/31 08:26:36;;;;;;;10.02;1.48;;;;;;;17.61;68.30;101445.50;5047681;28;20045;-74
2020/12/31 08:29:02;;;;;;;6.93;1.13;;;;;;;17.61;68.53;101443.72;5046714;28;20049;-76
2020/12/31 08:31:28;;;;;;;4.97;1.15;;;;;;;17.59;68.90;101448.13;5031813;28;20394;-75
2020/12/31 08:33:53;;;;;;;13.90;1.55;;;;;;;17.70;67.97;101448.16;5058479;28;20033;-73
2020/12/31 08:36:19;;;;;;;9.95;1.60;;;;;;;17.69;68.10;101447.25;5041093;28;20131;-75
2020/12/31 08:38:44;;;;;;;21.67;2.08;;;;;;;17.76;68.16;101451.69;5048437;28;20486;-75
2020/12/31 08:41:10;;;;;;;58.22;3.33;;;;;;;17.96;67.93;101448.06;5032584;28;20034;-76
2020/12/31 08:43:35;;;;;;;61.25;2.83;;;;;;;17.91;68.12;101446.31;5024962;28;20041;-76
2020/12/31 08:46:01;;;;;;;65.50;3.28;;;;;;;17.71;68.70;101448.16;5019040;28;20057;-76
2020/12/31 08:48:26;;;;;;;47.28;2.83;;;;;;;17.67;68.96;101449.03;5028304;28;20053;-77
2020/12/31 08:50:52;;;;;;;66.05;3.70;;;;;;;17.68;68.89;101448.16;5028207;28;20470;-77
2020/12/31 08:53:17;;;;;;;50.33;3.28;;;;;;;17.69;68.94;101441.03;5030502;28;20041;-77
2020/12/31 08:55:43;;;;;;;41.20;3.00;;;;;;;17.68;69.11;101441.91;5019050;28;20463;-77
2020/12/31 08:58:08;;;;;;;30.40;2.10;;;;;;;17.67;69.22;101448.13;5026978;28;20038;-77
2020/12/31 09:00:34;;;;;;;19.48;3.38;;;;;;;17.63;68.97;101443.72;5041921;28;20077;-77
2020/12/31 09:02:59;;;;;;;23.45;2.83;;;;;;;17.65;69.52;101447.28;5029101;28;20068;-77
2020/12/31 09:05:25;;;;;;;25.45;2.47;;;;;;;17.66;69.29;101441.91;5012785;28;20107;-77
2020/12/31 09:07:50;;;;;;;27.05;2.50;;;;;;;17.66;68.93;101441.03;5023607;28;20132;-77
2020/12/31 09:10:16;;;;;;;18.30;2.00;;;;;;;17.65;69.46;101434.81;5028624;28;20038;-77
2020/12/31 09:12:41;;;;;;;25.73;1.88;;;;;;;17.64;69.09;101424.13;5029676;28;20456;-77
2020/12/31 09:15:07;;;;;;;12.77;1.40;;;;;;;17.62;69.60;101420.56;5016965;28;20557;-77
2020/12/31 09:17:32;;;;;;;16.85;2.20;;;;;;;17.59;68.98;101424.09;5026965;28;20045;-77
2020/12/31 09:19:58;;;;;;;14.20;1.70;;;;;;;17.64;69.49;101417.00;5037104;28;20038;-77
2020/12/31 09:22:24;;;;;;;24.05;2.00;;;;;;;17.62;69.53;101426.81;5025266;28;20057;-77
2020/12/31 09:24:50;;;;;;;16.98;2.08;;;;;;;17.63;69.06;101419.69;5044262;28;20525;-76
2020/12/31 09:27:15;;;;;;;12.57;1.98;;;;;;;17.64;69.41;101414.34;5047094;28;20037;-77
2020/12/31 09:29:41;;;;;;;7.97;1.65;;;;;;;17.64;69.47;101401.00;5038546;28;20084;-77
2020/12/31 09:32:06;;;;;;;10.32;1.52;;;;;;;17.64;68.90;101408.13;5036141;28;20037;-77
2020/12/31 09:34:32;;;;;;;7.45;1.70;;;;;;;17.61;69.06;101395.66;5043453;28;20037;-77
2020/12/31 09:36:57;;;;;;;13.77;2.10;;;;;;;17.62;69.69;101399.22;5041678;28;20041;-77
2020/12/31 09:39:23;;;;;;;14.93;1.90;;;;;;;17.63;69.47;101390.31;5042210;28;20033;-77
2020/12/31 09:41:48;;;;;;;8.48;1.38;;;;;;;17.62;69.13;101381.41;5050390;28;20037;-77
2020/12/31 09:44:14;;;;;;;16.20;1.88;;;;;;;17.63;69.62;101375.19;5042844;28;20040;-78
2020/12/31 09:46:39;;;;;;;13.00;1.52;;;;;;;17.62;69.24;101373.41;5030018;28;20041;-77
2020/12/31 09:49:05;;;;;;;12.75;1.40;;;;;;;17.62;69.67;101369.84;5028978;28;20457;-77
2020/12/31 09:51:30;;;;;;;11.25;2.22;;;;;;;17.62;69.57;101370.72;5029846;28;20041;-77
2020/12/31 09:53:56;;;;;;;5.88;1.60;;;;;;;17.64;69.57;101373.41;5028993;28;20042;-77
2020/12/31 09:56:21;;;;;;;7.25;1.13;;;;;;;17.63;69.28;101363.59;5049971;28;20033;-77
2020/12/31 09:58:46;;;;;;;10.52;2.10;;;;;;;17.62;69.62;101361.81;5048774;28;20107;-77
2020/12/31 10:01:12;;;;;;;12.98;1.80;;;;;;;17.62;69.33;101376.06;5048248;28;20152;-77
2020/12/31 10:03:38;;;;;;;13.75;1.50;;;;;;;17.62;69.46;101369.84;5043645;28;20041;-77
2020/12/31 10:06:03;;;;;;;6.22;1.25;;;;;;;17.66;69.33;101367.13;5041441;28;20052;-76
2020/12/31 10:08:29;;;;;;;8.00;1.20;;;;;;;17.66;69.10;101366.25;5037454;28;20091;-76
2020/12/31 10:10:54;;;;;;;18.17;1.63;;;;;;;17.64;68.93;101368.06;5037008;28;20485;-84
2020/12/31 10:13:20;;;;;;;35.95;2.05;;;;;;;17.66;68.91;101361.78;5048392;28;20040;-78
2020/12/31 10:15:45;;;;;;;28.48;2.03;;;;;;;17.77;68.93;101368.00;5042171;28;20405;-77
2020/12/31 10:18:11;;;;;;;26.50;2.33;;;;;;;17.75;69.25;101369.78;5036850;28;20034;-77
2020/12/31 10:20:36;;;;;;;37.75;2.88;;;;;;;17.75;69.15;101361.78;5041572;28;20042;-77
2020/12/31 10:23:02;;;;;;;32.17;2.58;;;;;;;17.67;69.02;101371.59;5036754;28;20048;-77
2020/12/31 10:25:27;;;;;;;35.13;3.38;;;;;;;17.66;69.00;101368.91;5045505;28;20037;-77
2020/12/31 10:27:53;;;;;;;27.95;2.80;;;;;;;17.64;69.56;101358.28;5028676;28;20041;-77
2020/12/31 10:30:18;;;;;;;29.88;2.78;;;;;;;17.66;69.11;101356.47;5055084;28;20045;-77
2020/12/31 10:32:44;;;;;;;33.80;2.95;;;;;;;17.65;68.76;101346.69;5064049;28;20041;-76
2020/12/31 10:35:09;;;;;;;27.58;2.40;;;;;;;17.65;69.35;101356.50;5034261;28;20172;-77
2020/12/31 10:37:35;;;;;;;36.75;3.00;;;;;;;17.66;68.96;101342.22;5032201;28;20051;-78
2020/12/31 10:40:00;;;;;;;20.52;2.30;;;;;;;17.64;68.86;101338.69;5062939;28;21005;-77
2020/12/31 10:42:26;;;;;;;17.70;2.17;;;;;;;17.66;69.30;101327.09;5042869;28;20045;-77
2020/12/31 10:44:51;;;;;;;24.58;2.55;;;;;;;17.63;68.66;101313.75;5047878;28;20068;-77
2020/12/31 10:47:17;;;;;;;16.27;2.00;;;;;;;17.65;69.07;101309.31;5046604;28;20382;-77
2020/12/31 10:49:42;;;;;;;19.73;2.00;;;;;;;17.66;68.90;101302.16;5050440;28;20041;-76
2020/12/31 10:52:08;;;;;;;17.77;2.30;;;;;;;17.64;68.77;101303.97;5052793;28;20032;-77
2020/12/31 10:54:33;;;;;;;18.45;2.10;;;;;;;17.67;69.34;101299.50;5042710;28;20041;-77
2020/12/31 10:56:59;;;;;;;19.50;2.38;;;;;;;17.67;69.34;101303.94;5052121;28;20040;-77
2020/12/31 10:59:24;;;;;;;27.27;2.55;;;;;;;17.67;68.93;101303.94;5051671;28;20045;-77
2020/12/31 11:01:50;;;;;;;18.20;2.20;;;;;;;17.68;68.90;101303.06;5044181;28;20124;-77
2020/12/31 11:04:15;;;;;;;13.52;2.45;;;;;;;17.67;69.11;101306.63;5061550;28;20033;-77
2020/12/31 11:06:40;;;;;;;11.15;1.83;;;;;;;17.67;69.19;101298.59;5041277;28;20045;-77
2020/12/31 11:09:07;;;;;;;9.13;1.77;;;;;;;17.68;69.45;101316.41;5037904;28;20039;-77
2020/12/31 11:11:33;;;;;;;8.95;1.73;;;;;;;17.69;68.90;101323.53;5048687;28;20041;-77